createdAt,value
2023-10-22T00:00:27.755Z,5.57
2023-10-22T00:05:29.277Z,6.72
2023-10-22T00:10:30.892Z,4.97
2023-10-22T00:15:32.423Z,7.30
2023-10-22T00:20:34.393Z,9.02
2023-10-22T00:25:37.110Z,6.57
2023-10-22T00:30:38.778Z,5.15
2023-10-22T00:35:40.390Z,5.32
2023-10-22T00:40:41.910Z,4.75
2023-10-22T00:45:43.673Z,4.13
2023-10-22T00:50:45.414Z,4.32
2023-10-22T00:55:48.264Z,9.57
2023-10-22T01:00:49.903Z,8.15
2023-10-22T01:05:51.546Z,4.57
2023-10-22T01:10:53.125Z,5.65
2023-10-22T01:15:54.661Z,7.00
2023-10-22T01:20:56.487Z,7.18
2023-10-22T01:25:58.052Z,7.53
2023-10-22T01:30:59.762Z,6.88
2023-10-22T01:36:01.493Z,8.05
2023-10-22T01:41:07.438Z,7.72
2023-10-22T01:46:09.023Z,12.50
2023-10-22T01:51:10.655Z,10.00
2023-10-22T01:56:12.181Z,14.23
2023-10-22T02:01:13.903Z,8.68
2023-10-22T02:06:16.119Z,10.20
2023-10-22T02:11:19.725Z,12.00
2023-10-22T02:16:21.317Z,9.68
2023-10-22T02:21:27.219Z,8.30
2023-10-22T02:26:28.813Z,8.63
2023-10-22T02:31:30.563Z,10.10
2023-10-22T02:36:32.736Z,9.00
2023-10-22T02:41:34.790Z,12.65
2023-10-22T02:46:36.618Z,11.07
2023-10-22T02:51:38.199Z,8.13
2023-10-22T02:56:40.739Z,9.23
2023-10-22T03:01:42.461Z,9.60
2023-10-22T03:06:44.010Z,10.55
2023-10-22T03:11:45.625Z,10.57
2023-10-22T03:16:48.705Z,13.77
2023-10-22T03:21:50.366Z,13.98
2023-10-22T03:26:51.936Z,12.20
2023-10-22T03:31:53.476Z,15.82
2023-10-22T03:36:55.101Z,11.85
2023-10-22T03:41:56.652Z,16.65
2023-10-22T03:46:58.178Z,7.90
2023-10-22T03:52:00.094Z,6.70
2023-10-22T03:57:01.721Z,7.32
2023-10-22T04:02:03.585Z,5.55
2023-10-22T04:07:05.241Z,7.40
2023-10-22T04:12:07.234Z,7.82
2023-10-22T04:17:08.974Z,10.27
2023-10-22T04:22:10.486Z,14.85
2023-10-22T04:27:12.663Z,14.77
2023-10-22T04:32:14.543Z,11.60
2023-10-22T04:37:18.337Z,12.63
2023-10-22T04:42:19.937Z,10.48
2023-10-22T04:47:22.188Z,11.68
2023-10-22T04:52:32.248Z,8.38
2023-10-22T04:57:34.014Z,7.68
2023-10-22T05:02:35.965Z,14.57
2023-10-22T05:07:37.662Z,13.20
2023-10-22T05:12:39.339Z,10.52
2023-10-22T05:17:41.529Z,11.73
2023-10-22T05:22:45.544Z,10.68
2023-10-22T05:27:47.533Z,14.98
2023-10-22T05:32:49.254Z,10.05
2023-10-22T05:37:53.043Z,23.02
2023-10-22T05:42:54.522Z,14.00
2023-10-22T05:47:56.147Z,14.73
2023-10-22T05:52:57.766Z,20.45
2023-10-22T05:57:59.289Z,14.05
2023-10-22T06:03:00.992Z,14.02
2023-10-22T06:08:02.791Z,8.63
2023-10-22T06:13:04.292Z,10.70
2023-10-22T06:18:06.613Z,11.75
2023-10-22T06:23:08.195Z,9.73
2023-10-22T06:28:09.813Z,9.80
2023-10-22T06:33:11.494Z,8.77
2023-10-22T06:38:13.310Z,8.88
2023-10-22T06:43:14.901Z,8.40
2023-10-22T06:48:16.530Z,9.88
2023-10-22T06:53:18.494Z,5.90
2023-10-22T06:58:25.960Z,3.80
2023-10-22T07:03:27.737Z,11.93
2023-10-22T07:08:30.047Z,7.68
2023-10-22T07:13:31.573Z,10.13
2023-10-22T07:18:33.269Z,9.88
2023-10-22T07:23:34.955Z,7.43
2023-10-22T07:28:42.360Z,5.57
2023-10-22T07:33:44.344Z,4.82
2023-10-22T07:38:49.437Z,7.97
2023-10-22T07:43:51.245Z,8.88
2023-10-22T07:48:52.822Z,5.65
2023-10-22T07:53:54.477Z,4.10
2023-10-22T07:58:57.240Z,6.45
2023-10-22T08:03:59.123Z,11.75
2023-10-22T08:09:00.710Z,6.25
2023-10-22T08:14:02.262Z,4.55
2023-10-22T08:19:04.098Z,3.80
2023-10-22T08:24:06.330Z,3.03
2023-10-22T08:29:09.405Z,4.90
2023-10-22T08:34:10.974Z,7.00
2023-10-22T08:39:12.744Z,4.70
2023-10-22T08:44:15.526Z,4.68
2023-10-22T08:49:20.790Z,4.38
2023-10-22T08:54:23.768Z,6.00
2023-10-22T08:59:25.476Z,2.20
2023-10-22T09:04:27.046Z,5.60
2023-10-22T09:09:30.204Z,2.72
2023-10-22T09:14:31.920Z,4.40
2023-10-22T09:19:37.804Z,1.42
2023-10-22T09:24:50.346Z,3.65
2023-10-22T09:29:52.889Z,1.38
2023-10-22T09:34:54.549Z,1.27
2023-10-22T09:39:56.052Z,4.57
2023-10-22T09:44:57.573Z,3.80
2023-10-22T09:50:05.944Z,3.85
2023-10-22T09:55:11.647Z,1.48
2023-10-22T10:00:14.111Z,2.15
2023-10-22T10:05:16.469Z,3.20
2023-10-22T10:10:18.285Z,3.35
2023-10-22T10:15:36.366Z,4.15
2023-10-22T10:20:41.057Z,3.03
2023-10-22T10:25:44.082Z,5.88
2023-10-22T10:30:45.680Z,3.42
2023-10-22T10:35:49.191Z,6.10
2023-10-22T10:40:56.879Z,6.63
2023-10-22T10:46:25.089Z,4.10
2023-10-22T10:56:47.404Z,6.88
2023-10-22T11:02:11.395Z,3.45
2023-10-22T11:07:25.947Z,7.43
2023-10-22T11:12:30.346Z,8.02
2023-10-22T11:17:32.219Z,4.63
2023-10-22T11:22:34.102Z,4.57
2023-10-22T11:27:39.608Z,4.80
2023-10-22T11:32:48.737Z,5.45
2023-10-22T11:37:50.726Z,5.88
2023-10-22T11:42:52.490Z,6.18
2023-10-22T11:48:20.422Z,7.35
2023-10-22T11:53:22.038Z,6.65
2023-10-22T11:58:28.257Z,8.98
2023-10-22T12:03:30.012Z,5.93
2023-10-22T12:08:31.672Z,5.95
2023-10-22T12:13:33.214Z,4.63
2023-10-22T12:18:34.820Z,3.55
2023-10-22T12:23:48.852Z,3.15
2023-10-22T12:28:51.978Z,3.78
2023-10-22T12:33:53.520Z,3.33
2023-10-22T12:38:55.847Z,5.68
2023-10-22T12:43:57.494Z,2.88
2023-10-22T12:49:00.885Z,3.17
2023-10-22T12:54:05.654Z,4.38
2023-10-22T12:59:07.274Z,3.22
2023-10-22T13:04:09.046Z,3.15
2023-10-22T13:09:10.770Z,2.78
2023-10-22T13:14:12.370Z,4.35
2023-10-22T13:19:13.908Z,2.80
2023-10-22T13:24:15.641Z,3.55
2023-10-22T13:29:18.826Z,5.07
2023-10-22T13:34:20.411Z,3.25
2023-10-22T13:39:22.116Z,1.70
2023-10-22T13:44:23.721Z,3.05
2023-10-22T13:49:25.266Z,2.53
2023-10-22T13:54:26.882Z,4.13
2023-10-22T13:59:28.536Z,3.45
2023-10-22T14:04:30.291Z,4.13
2023-10-22T14:09:32.021Z,1.10
2023-10-22T14:14:38.468Z,4.13
2023-10-22T14:19:40.188Z,2.65
2023-10-22T14:24:41.740Z,3.42
2023-10-22T14:29:43.612Z,3.17
2023-10-22T14:34:45.457Z,2.38
2023-10-22T14:39:47.054Z,2.95
2023-10-22T14:44:48.666Z,2.63
2023-10-22T14:49:50.220Z,5.97
2023-10-22T14:54:51.738Z,4.20
2023-10-22T14:59:53.274Z,3.42
2023-10-22T15:04:55.801Z,3.15
2023-10-22T15:09:58.318Z,3.20
2023-10-22T15:14:59.951Z,2.75
2023-10-22T15:20:01.491Z,1.92
2023-10-22T15:25:03.338Z,4.18
2023-10-22T15:30:05.972Z,3.30
2023-10-22T15:35:07.674Z,4.03
2023-10-22T15:40:09.656Z,3.35
2023-10-22T15:45:11.269Z,3.60
2023-10-22T15:50:16.092Z,3.55
2023-10-22T15:55:18.155Z,4.45
2023-10-22T16:00:22.835Z,3.55
2023-10-22T16:05:24.553Z,2.90
2023-10-22T16:10:26.909Z,5.70
2023-10-22T16:15:29.705Z,1.65
2023-10-22T16:20:31.367Z,3.47
2023-10-22T16:25:33.224Z,4.28
2023-10-22T16:30:34.778Z,4.68
2023-10-22T16:35:36.291Z,5.63
2023-10-22T16:40:39.784Z,8.13
2023-10-22T16:45:46.937Z,15.27
2023-10-22T16:50:48.648Z,7.22
2023-10-22T16:55:50.196Z,10.43
2023-10-22T17:00:51.776Z,14.50
2023-10-22T17:05:54.675Z,14.48
2023-10-22T17:10:56.241Z,12.50
2023-10-22T17:16:00.988Z,8.38
2023-10-22T17:21:03.253Z,11.05
2023-10-22T17:26:04.840Z,7.75
2023-10-22T17:31:06.449Z,7.25
2023-10-22T17:36:08.111Z,7.40
2023-10-22T17:41:09.690Z,9.77
2023-10-22T17:46:15.628Z,13.82
2023-10-22T17:51:17.287Z,10.60
2023-10-22T17:56:19.325Z,4.25
2023-10-22T18:01:20.930Z,11.50
2023-10-22T18:06:22.714Z,8.38
2023-10-22T18:11:26.242Z,6.07
2023-10-22T18:16:27.951Z,12.23
2023-10-22T18:21:29.865Z,8.95
2023-10-22T18:26:31.516Z,13.75
2023-10-22T18:31:33.213Z,9.10
2023-10-22T18:36:34.959Z,9.75
2023-10-22T18:41:36.560Z,8.00
2023-10-22T18:46:39.368Z,8.10
2023-10-22T18:51:41.365Z,7.75
2023-10-22T18:56:43.007Z,6.45
2023-10-22T19:01:44.625Z,8.32
2023-10-22T19:06:46.215Z,10.15
2023-10-22T19:11:48.210Z,6.72
2023-10-22T19:16:49.854Z,9.52
2023-10-22T19:21:52.616Z,6.57
2023-10-22T19:26:54.171Z,5.28
2023-10-22T19:31:55.699Z,6.95
2023-10-22T19:36:57.600Z,11.52
2023-10-22T19:41:59.246Z,8.85
2023-10-22T19:47:00.871Z,9.10
2023-10-22T19:52:04.026Z,8.32
2023-10-22T19:57:07.684Z,8.55
2023-10-22T20:02:17.991Z,9.40
2023-10-22T20:07:20.216Z,8.98
2023-10-22T20:12:22.219Z,12.60
2023-10-22T20:17:23.807Z,12.52
2023-10-22T20:22:25.383Z,15.63
2023-10-22T20:27:26.972Z,16.90
2023-10-22T20:32:28.657Z,21.90
2023-10-22T20:37:30.174Z,20.00
2023-10-22T20:42:32.777Z,15.80
2023-10-22T20:47:34.365Z,17.63
2023-10-22T20:52:38.364Z,15.88
2023-10-22T20:57:40.106Z,15.10
2023-10-22T21:02:43.226Z,12.93
2023-10-22T21:07:44.749Z,10.02
2023-10-22T21:12:48.511Z,14.52
2023-10-22T21:17:50.365Z,12.80
2023-10-22T21:22:54.845Z,11.30
2023-10-22T21:27:56.379Z,10.23
2023-10-22T21:32:58.062Z,14.00
2023-10-22T21:38:00.060Z,10.38
2023-10-22T21:43:01.921Z,15.55
2023-10-22T21:48:03.504Z,12.52
2023-10-22T21:53:05.078Z,9.07
2023-10-22T21:58:06.837Z,14.48
2023-10-22T22:03:08.426Z,9.40
2023-10-22T22:08:10.114Z,13.52
2023-10-22T22:13:12.192Z,15.80
2023-10-22T22:18:13.848Z,11.90
2023-10-22T22:23:15.494Z,15.38
2023-10-22T22:28:16.996Z,10.43
2023-10-22T22:33:18.807Z,12.35
2023-10-22T22:38:20.449Z,15.23
2023-10-22T22:43:22.561Z,11.57
2023-10-22T22:48:24.233Z,14.20
2023-10-22T22:53:25.841Z,14.23
2023-10-22T22:58:27.344Z,11.82
2023-10-22T23:03:28.937Z,13.30
2023-10-22T23:08:30.492Z,11.05
2023-10-22T23:13:32.032Z,10.80
2023-10-22T23:18:33.594Z,11.45
2023-10-22T23:23:35.185Z,15.35
2023-10-22T23:28:36.698Z,11.35
2023-10-22T23:33:38.309Z,12.90
2023-10-22T23:38:39.972Z,15.73
2023-10-22T23:43:41.534Z,13.07
2023-10-22T23:48:43.127Z,10.02
2023-10-22T23:53:44.698Z,10.57
2023-10-22T23:58:46.217Z,14.63
